Capitol Logistics 18




PANC
Ted Stevens Anchorage International Airport
Anchorage, Alaska
RCTP
Taiwan Taoyuan International Airport
Taipei,

Activity Log

Date Flight Route Aircraft Duration
03/17/2021 CPX18 NODLE R220 NANNO ALICE Y111 MQE Y124 GTC Y12 KEC A1 AISAR A1 DRAKE DRAKE1A B744 10h 22m

Route Details

Aircraft Information
Primary: Boeing 747-400BCF
Backup: Not Available
Route Data
Distance: 4065nm
Duration: 10h 00m
Recm'd Route: NODLE R220 NANNO ALICE Y111 MQE Y124 GTC Y12 KEC A1 AISAR A1 DRAKE DRAKE1A
Origin Wx: PANC 180253Z 00000KT 10SM FEW120 SCT200 13/M04 A3032 RMK AO2 SLP269 T01281044 56015 VISNO N $
Dest. Wx: RCTP 180300Z 06025G35KT 8000 FEW010 SCT080 BKN150 25/13 Q1017 WS R05L NOSIG RMK A3005
Notes: